AIC188 CYYZ-LOWW
Flight info
| Callsign | AIC188 |
|---|---|
| Flight time | N/A |
| Altitude | 37000 |
| Route | DEDKI5 RAKAM DCT JIGZY DCT HULTN DCT SAXAN/M085F390 DCT 5250N DCT 5340N DCT 5330N DCT 5320N DCT MALOT/N0486F390 DCT GISTI/N0483F410 DCT EVRIN DCT JETZI DCT AMFUL DCT CAWZE DCT SIRIC P2 DVR UL9 KONAN UL607 KOK DCT MATUG DCT AMASI DCT BOMBI DCT DETEV DCT DINKU DCT BESNI DCT ALUTU DCT AKIMA/N0502F310 DCT MASUR |
| Aircraft | A359/H-SDE2E3GHIJ3J4J5LM1ORWXY/LB1D1 |
Departure
| Time | N/A |
|---|---|
| Airport | Toronto Pearson International Airport (CYYZ) |
Arrival
| Time | 2026-04-25 23:53 |
|---|---|
| Airport | Vienna International Airport (LOWW) |
| Time | Latitude | Longitude | Altitude | Speed | Heading |
|---|---|---|---|---|---|
| 2026-04-25 18:45 | 52.26576 | -47.90826 | 36449 ft | 477 kts | 78° |
| 2026-04-25 18:45 | 52.27255 | -47.85522 | 36448 ft | 477 kts | 78° |
| 2026-04-25 18:46 | 52.28602 | -47.74930 | 36452 ft | 476 kts | 79° |
| 2026-04-25 18:46 | 52.29943 | -47.64319 | 36451 ft | 476 kts | 79° |
| 2026-04-25 18:47 | 52.31271 | -47.53708 | 36457 ft | 476 kts | 79° |
| 2026-04-25 18:47 | 52.32583 | -47.43149 | 36456 ft | 476 kts | 79° |
| 2026-04-25 18:48 | 52.33895 | -47.32512 | 36457 ft | 476 kts | 79° |
| 2026-04-25 18:48 | 52.35197 | -47.21870 | 36451 ft | 476 kts | 79° |
| 2026-04-25 18:49 | 52.36488 | -47.11237 | 36461 ft | 476 kts | 79° |
| 2026-04-25 18:49 | 52.37761 | -47.00668 | 36462 ft | 476 kts | 80° |
| 2026-04-25 18:50 | 52.39032 | -46.90023 | 36467 ft | 476 kts | 80° |
| 2026-04-25 18:50 | 52.40294 | -46.79374 | 36465 ft | 476 kts | 80° |
| 2026-04-25 18:51 | 52.41337 | -46.70504 | 36467 ft | 477 kts | 80° |
| 2026-04-25 18:51 | 52.42785 | -46.58095 | 36469 ft | 476 kts | 80° |
| 2026-04-25 18:52 | 52.44018 | -46.47423 | 36463 ft | 476 kts | 81° |
| 2026-04-25 18:52 | 52.45241 | -46.36752 | 36467 ft | 476 kts | 81° |
| 2026-04-25 18:53 | 52.46457 | -46.26061 | 36474 ft | 476 kts | 81° |
| 2026-04-25 18:53 | 52.47661 | -46.15374 | 36474 ft | 476 kts | 81° |
| 2026-04-25 18:54 | 52.49443 | -45.99397 | 36475 ft | 476 kts | 81° |
| 2026-04-25 18:55 | 52.50623 | -45.88695 | 36485 ft | 478 kts | 81° |
| 2026-04-25 18:55 | 52.51798 | -45.77943 | 36483 ft | 479 kts | 81° |
| 2026-04-25 18:56 | 52.52967 | -45.67160 | 36488 ft | 479 kts | 81° |
| 2026-04-25 18:56 | 52.54127 | -45.56361 | 36485 ft | 479 kts | 81° |
| 2026-04-25 18:57 | 52.55277 | -45.45561 | 36494 ft | 480 kts | 82° |
| 2026-04-25 18:57 | 52.56417 | -45.34754 | 36493 ft | 480 kts | 82° |
| 2026-04-25 18:58 | 52.57540 | -45.24008 | 36502 ft | 480 kts | 82° |
| 2026-04-25 18:58 | 52.59219 | -45.07759 | 36501 ft | 479 kts | 82° |
| 2026-04-25 18:59 | 52.61413 | -44.86169 | 36508 ft | 479 kts | 82° |
| 2026-04-25 19:00 | 52.63038 | -44.69910 | 36518 ft | 480 kts | 82° |
| 2026-04-25 19:01 | 52.64640 | -44.53650 | 36514 ft | 479 kts | 82° |
| 2026-04-25 19:01 | 52.65689 | -44.42867 | 36514 ft | 479 kts | 83° |
| 2026-04-25 19:02 | 52.67255 | -44.26584 | 36526 ft | 480 kts | 83° |
| 2026-04-25 19:03 | 52.68462 | -44.13856 | 36527 ft | 481 kts | 83° |
| 2026-04-25 19:03 | 52.69825 | -43.99292 | 36528 ft | 483 kts | 83° |
| 2026-04-25 19:04 | 52.71343 | -43.82842 | 36538 ft | 484 kts | 84° |
| 2026-04-25 19:05 | 52.73326 | -43.60955 | 36542 ft | 483 kts | 84° |
| 2026-04-25 19:06 | 52.74305 | -43.49968 | 36543 ft | 483 kts | 84° |
| 2026-04-25 19:06 | 52.75754 | -43.33485 | 36553 ft | 483 kts | 84° |
| 2026-04-25 19:07 | 52.77184 | -43.16958 | 36533 ft | 485 kts | 85° |
| 2026-04-25 19:08 | 52.78590 | -43.00430 | 36559 ft | 485 kts | 85° |
| 2026-04-25 19:09 | 52.80280 | -42.80172 | 36564 ft | 485 kts | 85° |
| 2026-04-25 19:10 | 52.81789 | -42.61704 | 36570 ft | 485 kts | 85° |
| 2026-04-25 19:10 | 52.82676 | -42.50697 | 36569 ft | 485 kts | 85° |
| 2026-04-25 19:11 | 52.83554 | -42.39648 | 36579 ft | 484 kts | 86° |
| 2026-04-25 19:11 | 52.84424 | -42.28575 | 36578 ft | 486 kts | 86° |
| 2026-04-25 19:12 | 52.85278 | -42.17545 | 36586 ft | 487 kts | 86° |
| 2026-04-25 19:12 | 52.86130 | -42.06421 | 36586 ft | 487 kts | 86° |
| 2026-04-25 19:13 | 52.86975 | -41.95257 | 36583 ft | 487 kts | 86° |
| 2026-04-25 19:13 | 52.87806 | -41.84143 | 36590 ft | 486 kts | 86° |
| 2026-04-25 19:14 | 52.88625 | -41.73030 | 36594 ft | 486 kts | 86° |
| 2026-04-25 19:14 | 52.89428 | -41.61990 | 36594 ft | 486 kts | 87° |
| 2026-04-25 19:15 | 52.90226 | -41.50880 | 36609 ft | 486 kts | 87° |
| 2026-04-25 19:15 | 52.91014 | -41.39760 | 36580 ft | 487 kts | 87° |
| 2026-04-25 19:16 | 52.91794 | -41.28593 | 36605 ft | 488 kts | 87° |
| 2026-04-25 19:16 | 52.92563 | -41.17426 | 36613 ft | 488 kts | 88° |
| 2026-04-25 19:17 | 52.93324 | -41.06243 | 36611 ft | 488 kts | 88° |
| 2026-04-25 19:17 | 52.94070 | -40.95114 | 36619 ft | 488 kts | 88° |
| 2026-04-25 19:18 | 52.94809 | -40.83920 | 36618 ft | 488 kts | 88° |
| 2026-04-25 19:18 | 52.95538 | -40.72719 | 36625 ft | 488 kts | 88° |
| 2026-04-25 19:19 | 52.96257 | -40.61506 | 36626 ft | 488 kts | 88° |
| 2026-04-25 19:19 | 52.96961 | -40.50373 | 36630 ft | 489 kts | 88° |
| 2026-04-25 19:20 | 52.97661 | -40.39106 | 36636 ft | 491 kts | 88° |
| 2026-04-25 19:20 | 52.98351 | -40.27832 | 36640 ft | 491 kts | 89° |
| 2026-04-25 19:21 | 52.99030 | -40.16570 | 36631 ft | 491 kts | 88° |
| 2026-04-25 19:21 | 53.00033 | -39.99611 | 36648 ft | 491 kts | 89° |
| 2026-04-25 19:22 | 53.00573 | -39.88313 | 36647 ft | 490 kts | 90° |
| 2026-04-25 19:23 | 53.01127 | -39.73274 | 36652 ft | 490 kts | 91° |
| 2026-04-25 19:23 | 53.01833 | -39.54450 | 36668 ft | 492 kts | 90° |
| 2026-04-25 19:24 | 53.02190 | -39.44994 | 36661 ft | 492 kts | 90° |
| 2026-04-25 19:25 | 53.03022 | -39.22265 | 36668 ft | 493 kts | 91° |
| 2026-04-25 19:25 | 53.03421 | -39.10893 | 36676 ft | 493 kts | 91° |
| 2026-04-25 19:26 | 53.03807 | -38.99524 | 36683 ft | 493 kts | 91° |
| 2026-04-25 19:26 | 53.04181 | -38.88230 | 36679 ft | 493 kts | 91° |
| 2026-04-25 19:27 | 53.04485 | -38.78774 | 36690 ft | 493 kts | 91° |
| 2026-04-25 19:27 | 53.04901 | -38.65469 | 36683 ft | 495 kts | 91° |
| 2026-04-25 19:28 | 53.05246 | -38.54033 | 36687 ft | 495 kts | 91° |
| 2026-04-25 19:28 | 53.05581 | -38.42586 | 36686 ft | 496 kts | 91° |
| 2026-04-25 19:29 | 53.05905 | -38.31146 | 36692 ft | 495 kts | 91° |
| 2026-04-25 19:29 | 53.06217 | -38.19703 | 36697 ft | 495 kts | 91° |
| 2026-04-25 19:30 | 53.06517 | -38.08326 | 36705 ft | 495 kts | 91° |
| 2026-04-25 19:30 | 53.06807 | -37.96881 | 36710 ft | 495 kts | 91° |
| 2026-04-25 19:31 | 53.07087 | -37.85446 | 36695 ft | 494 kts | 92° |
| 2026-04-25 19:31 | 53.07354 | -37.74040 | 36713 ft | 498 kts | 92° |
| 2026-04-25 19:32 | 53.07612 | -37.62511 | 36716 ft | 499 kts | 92° |
| 2026-04-25 19:32 | 53.07821 | -37.52909 | 36726 ft | 499 kts | 92° |
| 2026-04-25 19:33 | 53.08098 | -37.39495 | 36734 ft | 499 kts | 92° |
| 2026-04-25 19:33 | 53.08325 | -37.27932 | 36732 ft | 499 kts | 92° |
| 2026-04-25 19:34 | 53.08540 | -37.16394 | 36737 ft | 499 kts | 92° |
| 2026-04-25 19:34 | 53.08743 | -37.04857 | 36745 ft | 499 kts | 92° |
| 2026-04-25 19:35 | 53.08934 | -36.93405 | 36740 ft | 499 kts | 92° |
| 2026-04-25 19:35 | 53.09116 | -36.81827 | 36752 ft | 501 kts | 92° |
| 2026-04-25 19:36 | 53.09287 | -36.70229 | 36749 ft | 501 kts | 92° |
| 2026-04-25 19:36 | 53.09448 | -36.58628 | 36763 ft | 501 kts | 92° |
| 2026-04-25 19:37 | 53.09597 | -36.47013 | 36752 ft | 501 kts | 92° |
| 2026-04-25 19:37 | 53.09734 | -36.35411 | 36769 ft | 501 kts | 92° |
| 2026-04-25 19:38 | 53.09859 | -36.23881 | 36766 ft | 501 kts | 92° |
| 2026-04-25 19:38 | 53.09974 | -36.12288 | 36777 ft | 501 kts | 92° |
| 2026-04-25 19:39 | 53.10077 | -36.00687 | 36777 ft | 501 kts | 93° |
| 2026-04-25 19:39 | 53.10170 | -35.89079 | 36777 ft | 501 kts | 93° |
| 2026-04-25 19:40 | 53.10250 | -35.77479 | 36785 ft | 501 kts | 93° |
| 2026-04-25 19:40 | 53.10320 | -35.65868 | 36785 ft | 501 kts | 93° |
| 2026-04-25 19:41 | 53.10379 | -35.54339 | 36786 ft | 501 kts | 93° |
| 2026-04-25 19:41 | 53.10419 | -35.44620 | 36790 ft | 501 kts | 93° |
| 2026-04-25 19:42 | 53.10462 | -35.31131 | 36801 ft | 501 kts | 93° |
| 2026-04-25 19:42 | 53.10486 | -35.19534 | 36783 ft | 501 kts | 93° |
| 2026-04-25 19:43 | 53.10499 | -35.07897 | 36806 ft | 503 kts | 93° |
| 2026-04-25 19:43 | 53.10501 | -34.96324 | 36807 ft | 503 kts | 93° |
| 2026-04-25 19:44 | 53.10492 | -34.84674 | 36818 ft | 503 kts | 93° |
| 2026-04-25 19:44 | 53.10472 | -34.73022 | 36818 ft | 503 kts | 94° |
| 2026-04-25 19:45 | 53.10439 | -34.61367 | 36818 ft | 503 kts | 93° |
| 2026-04-25 19:45 | 53.10395 | -34.49720 | 36826 ft | 503 kts | 94° |
| 2026-04-25 19:46 | 53.10341 | -34.38048 | 36837 ft | 503 kts | 94° |
| 2026-04-25 19:46 | 53.10275 | -34.26391 | 36842 ft | 504 kts | 94° |
| 2026-04-25 19:47 | 53.10197 | -34.14710 | 36835 ft | 505 kts | 94° |
| 2026-04-25 19:47 | 53.10108 | -34.03090 | 36846 ft | 505 kts | 94° |
| 2026-04-25 19:48 | 53.10007 | -33.91403 | 36844 ft | 505 kts | 94° |
| 2026-04-25 19:48 | 53.09895 | -33.79706 | 36852 ft | 505 kts | 94° |
| 2026-04-25 19:49 | 53.09814 | -33.71893 | 36857 ft | 505 kts | 94° |
| 2026-04-25 19:49 | 53.09637 | -33.56320 | 36866 ft | 505 kts | 94° |
| 2026-04-25 19:50 | 53.09413 | -33.38790 | 36860 ft | 506 kts | 94° |
| 2026-04-25 19:51 | 53.09248 | -33.27068 | 36876 ft | 507 kts | 94° |
| 2026-04-25 19:51 | 53.09073 | -33.15425 | 36875 ft | 507 kts | 94° |
| 2026-04-25 19:52 | 53.08886 | -33.03700 | 36886 ft | 507 kts | 94° |
| 2026-04-25 19:52 | 53.08688 | -32.91963 | 36886 ft | 507 kts | 94° |
| 2026-04-25 19:53 | 53.08478 | -32.80251 | 36895 ft | 507 kts | 95° |
| 2026-04-25 19:53 | 53.08256 | -32.68533 | 36894 ft | 507 kts | 95° |
| 2026-04-25 19:54 | 53.08024 | -32.56877 | 36906 ft | 507 kts | 95° |
| 2026-04-25 19:54 | 53.07779 | -32.45163 | 36902 ft | 507 kts | 95° |
| 2026-04-25 19:55 | 53.07522 | -32.33412 | 36907 ft | 507 kts | 95° |
| 2026-04-25 19:55 | 53.07254 | -32.21686 | 36913 ft | 507 kts | 95° |
| 2026-04-25 19:56 | 53.06975 | -32.09958 | 36916 ft | 508 kts | 95° |
| 2026-04-25 19:56 | 53.06683 | -31.98228 | 36917 ft | 508 kts | 95° |
| 2026-04-25 19:57 | 53.06380 | -31.86490 | 36925 ft | 508 kts | 95° |
| 2026-04-25 19:57 | 53.06066 | -31.74763 | 36918 ft | 508 kts | 95° |
| 2026-04-25 19:58 | 53.05741 | -31.63095 | 36922 ft | 508 kts | 95° |
| 2026-04-25 19:58 | 53.05404 | -31.51365 | 36928 ft | 508 kts | 95° |
| 2026-04-25 19:59 | 53.05054 | -31.39621 | 36935 ft | 509 kts | 95° |
| 2026-04-25 19:59 | 53.04693 | -31.27879 | 36938 ft | 509 kts | 95° |
| 2026-04-25 20:00 | 53.04320 | -31.16126 | 36945 ft | 509 kts | 96° |
| 2026-04-25 20:00 | 53.03935 | -31.04370 | 36948 ft | 509 kts | 96° |
| 2026-04-25 20:01 | 53.03336 | -30.86739 | 36953 ft | 509 kts | 96° |
| 2026-04-25 20:01 | 53.02922 | -30.74985 | 36944 ft | 510 kts | 96° |
| 2026-04-25 20:02 | 53.02499 | -30.63288 | 36955 ft | 510 kts | 96° |
| 2026-04-25 20:02 | 53.02061 | -30.51508 | 36959 ft | 510 kts | 96° |
| 2026-04-25 20:03 | 53.01612 | -30.39751 | 36965 ft | 510 kts | 96° |
| 2026-04-25 20:03 | 53.01151 | -30.27989 | 36966 ft | 510 kts | 96° |
| 2026-04-25 20:04 | 53.00715 | -30.17121 | 36969 ft | 510 kts | 96° |
| 2026-04-25 20:04 | 53.00235 | -30.05433 | 36969 ft | 510 kts | 96° |
| 2026-04-25 20:05 | 53.00281 | -29.93640 | 36968 ft | 512 kts | 89° |
| 2026-04-25 20:05 | 53.00717 | -29.81835 | 36970 ft | 512 kts | 88° |
| 2026-04-25 20:06 | 53.01210 | -29.70017 | 36979 ft | 512 kts | 88° |
| 2026-04-25 20:06 | 53.01690 | -29.58181 | 36979 ft | 514 kts | 88° |
| 2026-04-25 20:07 | 53.02143 | -29.46394 | 36976 ft | 514 kts | 88° |
| 2026-04-25 20:07 | 53.02583 | -29.34533 | 36976 ft | 514 kts | 88° |
| 2026-04-25 20:08 | 53.03008 | -29.22683 | 36979 ft | 514 kts | 88° |
| 2026-04-25 20:08 | 53.03423 | -29.10821 | 36982 ft | 514 kts | 88° |
| 2026-04-25 20:09 | 53.03827 | -28.98938 | 36983 ft | 516 kts | 88° |
| 2026-04-25 20:09 | 53.04221 | -28.87005 | 36984 ft | 516 kts | 88° |
| 2026-04-25 20:10 | 53.04600 | -28.75171 | 36985 ft | 516 kts | 88° |
| 2026-04-25 20:10 | 53.04969 | -28.63254 | 36988 ft | 516 kts | 89° |
| 2026-04-25 20:11 | 53.05326 | -28.51337 | 36997 ft | 516 kts | 88° |
| 2026-04-25 20:11 | 53.05615 | -28.41402 | 37003 ft | 517 kts | 88° |
| 2026-04-25 20:12 | 53.06005 | -28.27529 | 36990 ft | 517 kts | 89° |
| 2026-04-25 20:12 | 53.06222 | -28.19540 | 36995 ft | 517 kts | 89° |
| 2026-04-25 20:13 | 53.06588 | -28.05585 | 36988 ft | 517 kts | 89° |
| 2026-04-25 20:13 | 53.06886 | -27.93715 | 36994 ft | 517 kts | 89° |
| 2026-04-25 20:14 | 53.07174 | -27.81765 | 36996 ft | 517 kts | 89° |
| 2026-04-25 20:14 | 53.07451 | -27.69817 | 36995 ft | 517 kts | 89° |
| 2026-04-25 20:15 | 53.07716 | -27.57861 | 37000 ft | 517 kts | 89° |
| 2026-04-25 20:15 | 53.07968 | -27.45897 | 37000 ft | 517 kts | 89° |
| 2026-04-25 20:16 | 53.08209 | -27.33928 | 37004 ft | 517 kts | 89° |
| 2026-04-25 20:16 | 53.08438 | -27.21956 | 37004 ft | 517 kts | 89° |
| 2026-04-25 20:17 | 53.08654 | -27.09985 | 37002 ft | 517 kts | 89° |
| 2026-04-25 20:17 | 53.08858 | -26.98077 | 37009 ft | 517 kts | 89° |
| 2026-04-25 20:18 | 53.09051 | -26.86108 | 37010 ft | 517 kts | 89° |
| 2026-04-25 20:18 | 53.09232 | -26.74126 | 37008 ft | 517 kts | 90° |
| 2026-04-25 20:19 | 53.09401 | -26.62132 | 37010 ft | 517 kts | 90° |
| 2026-04-25 20:19 | 53.09558 | -26.50148 | 37013 ft | 517 kts | 90° |
| 2026-04-25 20:20 | 53.09702 | -26.38173 | 37011 ft | 517 kts | 90° |
| 2026-04-25 20:20 | 53.09835 | -26.26209 | 37011 ft | 517 kts | 90° |
| 2026-04-25 20:21 | 53.09955 | -26.14316 | 37014 ft | 517 kts | 90° |
| 2026-04-25 20:21 | 53.10064 | -26.02319 | 37013 ft | 517 kts | 90° |
| 2026-04-25 20:22 | 53.10145 | -25.92363 | 37015 ft | 517 kts | 90° |
| 2026-04-25 20:22 | 53.10244 | -25.78430 | 37020 ft | 517 kts | 90° |
| 2026-04-25 20:23 | 53.10317 | -25.66455 | 37019 ft | 518 kts | 90° |
| 2026-04-25 20:23 | 53.10378 | -25.54483 | 37019 ft | 518 kts | 90° |
| 2026-04-25 20:24 | 53.10426 | -25.42497 | 37021 ft | 518 kts | 90° |
| 2026-04-25 20:24 | 53.10463 | -25.30514 | 37024 ft | 517 kts | 91° |
| 2026-04-25 20:25 | 53.10488 | -25.18528 | 37022 ft | 518 kts | 91° |
| 2026-04-25 20:25 | 53.10500 | -25.06550 | 37020 ft | 518 kts | 91° |
| 2026-04-25 20:26 | 53.10501 | -24.94637 | 37024 ft | 517 kts | 91° |
| 2026-04-25 20:26 | 53.10489 | -24.82658 | 37022 ft | 517 kts | 91° |
| 2026-04-25 20:27 | 53.10466 | -24.70674 | 37022 ft | 517 kts | 91° |
| 2026-04-25 20:27 | 53.10430 | -24.58693 | 37021 ft | 517 kts | 91° |
| 2026-04-25 20:28 | 53.10382 | -24.46715 | 37031 ft | 518 kts | 91° |
| 2026-04-25 20:28 | 53.10323 | -24.34812 | 37028 ft | 518 kts | 91° |
| 2026-04-25 20:29 | 53.10252 | -24.22802 | 37033 ft | 518 kts | 91° |
| 2026-04-25 20:29 | 53.10168 | -24.10807 | 37030 ft | 518 kts | 92° |
| 2026-04-25 20:30 | 53.10072 | -23.98804 | 37039 ft | 518 kts | 92° |
| 2026-04-25 20:30 | 53.09965 | -23.86903 | 37037 ft | 518 kts | 92° |
| 2026-04-25 20:31 | 53.09846 | -23.74916 | 37036 ft | 517 kts | 92° |
| 2026-04-25 20:31 | 53.09714 | -23.62972 | 37042 ft | 517 kts | 92° |
| 2026-04-25 20:32 | 53.09571 | -23.51015 | 37043 ft | 516 kts | 92° |
| 2026-04-25 20:32 | 53.09416 | -23.39046 | 37041 ft | 517 kts | 92° |
| 2026-04-25 20:33 | 53.09249 | -23.27153 | 37043 ft | 516 kts | 92° |
| 2026-04-25 20:33 | 53.09101 | -23.17212 | 37046 ft | 516 kts | 92° |
| 2026-04-25 20:34 | 53.08879 | -23.03296 | 37047 ft | 516 kts | 93° |
| 2026-04-25 20:34 | 53.08676 | -22.91332 | 37046 ft | 516 kts | 93° |
| 2026-04-25 20:35 | 53.08461 | -22.79385 | 37055 ft | 516 kts | 93° |
| 2026-04-25 20:35 | 53.08234 | -22.67442 | 37049 ft | 516 kts | 93° |
| 2026-04-25 20:36 | 53.08025 | -22.56952 | 37059 ft | 515 kts | 93° |
| 2026-04-25 20:36 | 53.07776 | -22.45041 | 37053 ft | 515 kts | 93° |
| 2026-04-25 20:37 | 53.07516 | -22.33138 | 37053 ft | 515 kts | 94° |
| 2026-04-25 20:37 | 53.07243 | -22.21235 | 37053 ft | 515 kts | 94° |
| 2026-04-25 20:38 | 53.06961 | -22.09410 | 37061 ft | 515 kts | 94° |
| 2026-04-25 20:38 | 53.06664 | -21.97503 | 37061 ft | 515 kts | 94° |
| 2026-04-25 20:39 | 53.06356 | -21.85606 | 37057 ft | 515 kts | 94° |
| 2026-04-25 20:39 | 53.06092 | -21.75721 | 37058 ft | 514 kts | 94° |
| 2026-04-25 20:40 | 53.05706 | -21.61831 | 37067 ft | 514 kts | 94° |
| 2026-04-25 20:40 | 53.05363 | -21.49957 | 37067 ft | 514 kts | 95° |
| 2026-04-25 20:41 | 53.05008 | -21.38089 | 37068 ft | 513 kts | 95° |
| 2026-04-25 20:41 | 53.04645 | -21.26331 | 37069 ft | 512 kts | 95° |
| 2026-04-25 20:42 | 53.04267 | -21.14492 | 37077 ft | 512 kts | 95° |
| 2026-04-25 20:42 | 53.03879 | -21.02672 | 37077 ft | 512 kts | 95° |
| 2026-04-25 20:43 | 53.03478 | -20.90855 | 37074 ft | 512 kts | 95° |
| 2026-04-25 20:43 | 53.03069 | -20.79116 | 37075 ft | 512 kts | 95° |
| 2026-04-25 20:44 | 53.02646 | -20.67305 | 37085 ft | 512 kts | 95° |
| 2026-04-25 20:44 | 53.02210 | -20.55487 | 37085 ft | 512 kts | 95° |
| 2026-04-25 20:45 | 53.01764 | -20.43688 | 37080 ft | 512 kts | 96° |
| 2026-04-25 20:45 | 53.01305 | -20.31894 | 37080 ft | 512 kts | 96° |
| 2026-04-25 20:46 | 53.00835 | -20.20090 | 37090 ft | 511 kts | 96° |
| 2026-04-25 20:46 | 53.00356 | -20.08340 | 37095 ft | 510 kts | 96° |
| 2026-04-25 20:47 | 53.00115 | -19.96641 | 37097 ft | 511 kts | 91° |
| 2026-04-25 20:47 | 53.00287 | -19.84821 | 37097 ft | 511 kts | 90° |
| 2026-04-25 20:48 | 53.00523 | -19.73020 | 37097 ft | 511 kts | 90° |
| 2026-04-25 20:48 | 53.00753 | -19.61259 | 37105 ft | 511 kts | 90° |
| 2026-04-25 20:49 | 53.00963 | -19.49450 | 37102 ft | 511 kts | 90° |
| 2026-04-25 20:49 | 53.01155 | -19.37642 | 37105 ft | 511 kts | 90° |
| 2026-04-25 20:50 | 53.01334 | -19.25826 | 37108 ft | 511 kts | 90° |
| 2026-04-25 20:50 | 53.01502 | -19.14019 | 37108 ft | 511 kts | 90° |
| 2026-04-25 20:51 | 53.01658 | -19.02295 | 37108 ft | 511 kts | 91° |
| 2026-04-25 20:51 | 53.01803 | -18.90511 | 37113 ft | 510 kts | 91° |
| 2026-04-25 20:52 | 53.01915 | -18.80638 | 37113 ft | 510 kts | 91° |
| 2026-04-25 20:52 | 53.02057 | -18.66930 | 37092 ft | 510 kts | 91° |
| 2026-04-25 20:53 | 53.02167 | -18.55169 | 37117 ft | 509 kts | 91° |
| 2026-04-25 20:53 | 53.02265 | -18.43407 | 37117 ft | 509 kts | 91° |
| 2026-04-25 20:54 | 53.02351 | -18.31654 | 37127 ft | 509 kts | 91° |
| 2026-04-25 20:54 | 53.02424 | -18.19974 | 37128 ft | 508 kts | 92° |
| 2026-04-25 20:55 | 53.02487 | -18.08223 | 37125 ft | 508 kts | 92° |
| 2026-04-25 20:55 | 53.02540 | -17.96471 | 37134 ft | 509 kts | 92° |
| 2026-04-25 20:56 | 53.02580 | -17.84698 | 37119 ft | 509 kts | 92° |
| 2026-04-25 20:56 | 53.02608 | -17.72929 | 37137 ft | 509 kts | 92° |
| 2026-04-25 20:57 | 53.02625 | -17.61166 | 37134 ft | 509 kts | 92° |
| 2026-04-25 20:57 | 53.02630 | -17.49467 | 37135 ft | 509 kts | 93° |
| 2026-04-25 20:58 | 53.02624 | -17.37699 | 37148 ft | 509 kts | 93° |
| 2026-04-25 20:58 | 53.02606 | -17.25931 | 37133 ft | 509 kts | 93° |
| 2026-04-25 20:59 | 53.02576 | -17.14135 | 37134 ft | 509 kts | 93° |
| 2026-04-25 20:59 | 53.02535 | -17.02437 | 37135 ft | 509 kts | 93° |
| 2026-04-25 21:00 | 53.02502 | -16.94571 | 37135 ft | 509 kts | 94° |
| 2026-04-25 21:01 | 53.02396 | -16.75069 | 37155 ft | 506 kts | 94° |
| 2026-04-25 21:01 | 53.02316 | -16.63365 | 37152 ft | 506 kts | 94° |
| 2026-04-25 21:02 | 53.02209 | -16.49777 | 37155 ft | 506 kts | 94° |
| 2026-04-25 21:02 | 53.02123 | -16.39984 | 37156 ft | 506 kts | 94° |
| 2026-04-25 21:03 | 53.02010 | -16.28351 | 37161 ft | 506 kts | 94° |
| 2026-04-25 21:03 | 53.01885 | -16.16652 | 37164 ft | 506 kts | 94° |
| 2026-04-25 21:04 | 53.01748 | -16.04962 | 37161 ft | 506 kts | 94° |
| 2026-04-25 21:04 | 53.01600 | -15.93280 | 37166 ft | 506 kts | 95° |
| 2026-04-25 21:05 | 53.01440 | -15.81563 | 37166 ft | 506 kts | 95° |
| 2026-04-25 21:05 | 53.01284 | -15.70858 | 37166 ft | 506 kts | 95° |
| 2026-04-25 21:06 | 53.01103 | -15.59164 | 37174 ft | 506 kts | 95° |
| 2026-04-25 21:06 | 53.00910 | -15.47479 | 37173 ft | 506 kts | 95° |
| 2026-04-25 21:07 | 53.00706 | -15.35789 | 37172 ft | 506 kts | 95° |
| 2026-04-25 21:07 | 53.00491 | -15.24197 | 37181 ft | 505 kts | 95° |
| 2026-04-25 21:08 | 53.00265 | -15.12546 | 37178 ft | 505 kts | 95° |
| 2026-04-25 21:08 | 53.00027 | -15.00880 | 37178 ft | 505 kts | 95° |
| 2026-04-25 21:09 | 52.99967 | -14.83357 | 37182 ft | 506 kts | 92° |
| 2026-04-25 21:09 | 53.00060 | -14.71731 | 37179 ft | 506 kts | 92° |
| 2026-04-25 21:10 | 53.00109 | -14.60030 | 37188 ft | 506 kts | 93° |
| 2026-04-25 21:10 | 53.00119 | -14.48341 | 37184 ft | 506 kts | 93° |
| 2026-04-25 21:11 | 53.00109 | -14.36646 | 37187 ft | 506 kts | 93° |
| 2026-04-25 21:11 | 53.00088 | -14.25037 | 37193 ft | 506 kts | 93° |
| 2026-04-25 21:12 | 53.00057 | -14.13334 | 37196 ft | 506 kts | 93° |
| 2026-04-25 21:12 | 53.00000 | -14.03596 | 37261 ft | 506 kts | 96° |
| 2026-04-25 21:13 | 52.99418 | -13.95957 | 37588 ft | 501 kts | 103° |
| 2026-04-25 21:13 | 52.98770 | -13.90278 | 37890 ft | 500 kts | 104° |
| 2026-04-25 21:13 | 52.98068 | -13.84636 | 38155 ft | 499 kts | 105° |
| 2026-04-25 21:13 | 52.97332 | -13.78983 | 37970 ft | 499 kts | 105° |
| 2026-04-25 21:14 | 52.96583 | -13.73345 | 37691 ft | 499 kts | 105° |
| 2026-04-25 21:14 | 52.95831 | -13.67719 | 37444 ft | 500 kts | 106° |
| 2026-04-25 21:14 | 52.95080 | -13.62095 | 37227 ft | 500 kts | 106° |
| 2026-04-25 21:14 | 52.94337 | -13.56529 | 37201 ft | 500 kts | 106° |
| 2026-04-25 21:15 | 52.92837 | -13.45289 | 37204 ft | 499 kts | 106° |
| 2026-04-25 21:15 | 52.91333 | -13.34059 | 37208 ft | 499 kts | 106° |
| 2026-04-25 21:16 | 52.89816 | -13.22824 | 37198 ft | 499 kts | 106° |
| 2026-04-25 21:16 | 52.88288 | -13.11598 | 37206 ft | 500 kts | 106° |
| 2026-04-25 21:17 | 52.86748 | -13.00363 | 37211 ft | 500 kts | 106° |
| 2026-04-25 21:17 | 52.85209 | -12.89224 | 37211 ft | 500 kts | 106° |
| 2026-04-25 21:18 | 52.83649 | -12.78015 | 37211 ft | 500 kts | 106° |
| 2026-04-25 21:18 | 52.82077 | -12.66811 | 37205 ft | 500 kts | 106° |
| 2026-04-25 21:19 | 52.80495 | -12.55616 | 37214 ft | 500 kts | 106° |
| 2026-04-25 21:19 | 52.78902 | -12.44425 | 37213 ft | 500 kts | 106° |
| 2026-04-25 21:20 | 52.77569 | -12.35119 | 37214 ft | 500 kts | 106° |
| 2026-04-25 21:20 | 52.75691 | -12.22111 | 37213 ft | 500 kts | 107° |
| 2026-04-25 21:21 | 52.74065 | -12.10935 | 37210 ft | 500 kts | 107° |
| 2026-04-25 21:21 | 52.72428 | -11.99765 | 37213 ft | 501 kts | 107° |
| 2026-04-25 21:22 | 52.70777 | -11.88578 | 37218 ft | 501 kts | 107° |
| 2026-04-25 21:22 | 52.69120 | -11.77423 | 37219 ft | 501 kts | 107° |
| 2026-04-25 21:23 | 52.67450 | -11.66267 | 37205 ft | 501 kts | 107° |
| 2026-04-25 21:23 | 52.65784 | -11.55216 | 37212 ft | 500 kts | 107° |
| 2026-04-25 21:24 | 52.64095 | -11.44089 | 37218 ft | 501 kts | 107° |
| 2026-04-25 21:24 | 52.62394 | -11.32963 | 37218 ft | 501 kts | 107° |
| 2026-04-25 21:25 | 52.60684 | -11.21849 | 37224 ft | 501 kts | 107° |
| 2026-04-25 21:25 | 52.58973 | -11.10802 | 37222 ft | 501 kts | 107° |
| 2026-04-25 21:26 | 52.57242 | -10.99710 | 37219 ft | 501 kts | 107° |
| 2026-04-25 21:26 | 52.55498 | -10.88610 | 37224 ft | 502 kts | 107° |
| 2026-04-25 21:27 | 52.53743 | -10.77510 | 37224 ft | 502 kts | 107° |
| 2026-04-25 21:27 | 52.51976 | -10.66407 | 37212 ft | 502 kts | 107° |
| 2026-04-25 21:28 | 52.50201 | -10.55328 | 37223 ft | 501 kts | 108° |
| 2026-04-25 21:28 | 52.48419 | -10.44279 | 37220 ft | 501 kts | 108° |
| 2026-04-25 21:29 | 52.46626 | -10.33236 | 37226 ft | 501 kts | 108° |
| 2026-04-25 21:29 | 52.44833 | -10.22268 | 37227 ft | 501 kts | 108° |
| 2026-04-25 21:30 | 52.43018 | -10.11237 | 37227 ft | 501 kts | 108° |
| 2026-04-25 21:30 | 52.41503 | -10.02081 | 37230 ft | 501 kts | 108° |
| 2026-04-25 21:31 | 52.39359 | -9.89212 | 37212 ft | 501 kts | 108° |
| 2026-04-25 21:31 | 52.37512 | -9.78199 | 37225 ft | 502 kts | 108° |
| 2026-04-25 21:32 | 52.35655 | -9.67188 | 37223 ft | 502 kts | 108° |
| 2026-04-25 21:32 | 52.33798 | -9.56253 | 37226 ft | 501 kts | 108° |
| 2026-04-25 21:33 | 52.31922 | -9.45281 | 37228 ft | 501 kts | 108° |
| 2026-04-25 21:33 | 52.30035 | -9.34313 | 37228 ft | 502 kts | 108° |
| 2026-04-25 21:34 | 52.28136 | -9.23339 | 37222 ft | 502 kts | 108° |
| 2026-04-25 21:34 | 52.26228 | -9.12375 | 37221 ft | 502 kts | 108° |
| 2026-04-25 21:35 | 52.24304 | -9.01395 | 37217 ft | 502 kts | 108° |
| 2026-04-25 21:35 | 52.22371 | -8.90425 | 37205 ft | 502 kts | 108° |
| 2026-04-25 21:36 | 52.20437 | -8.79529 | 37214 ft | 503 kts | 108° |
| 2026-04-25 21:36 | 52.18480 | -8.68561 | 37208 ft | 503 kts | 108° |
| 2026-04-25 21:37 | 52.16849 | -8.59465 | 37208 ft | 503 kts | 109° |
| 2026-04-25 21:37 | 52.14541 | -8.46678 | 37203 ft | 503 kts | 109° |
| 2026-04-25 21:38 | 52.12557 | -8.35761 | 37197 ft | 503 kts | 109° |
| 2026-04-25 21:38 | 52.10556 | -8.24816 | 37206 ft | 505 kts | 109° |
| 2026-04-25 21:39 | 52.08553 | -8.13920 | 37202 ft | 505 kts | 109° |
| 2026-04-25 21:39 | 52.06530 | -8.02982 | 37208 ft | 505 kts | 109° |
| 2026-04-25 21:40 | 52.04507 | -7.92106 | 37207 ft | 505 kts | 109° |
| 2026-04-25 21:40 | 52.02462 | -7.81179 | 37190 ft | 505 kts | 109° |
| 2026-04-25 21:41 | 52.00404 | -7.70251 | 37210 ft | 506 kts | 109° |
| 2026-04-25 21:41 | 51.98333 | -7.59310 | 37213 ft | 507 kts | 109° |
| 2026-04-25 21:42 | 51.96267 | -7.48460 | 37211 ft | 507 kts | 109° |
| 2026-04-25 21:42 | 51.94174 | -7.37531 | 37217 ft | 507 kts | 109° |
| 2026-04-25 21:43 | 51.92074 | -7.26633 | 37217 ft | 507 kts | 109° |
| 2026-04-25 21:43 | 51.89960 | -7.15726 | 37219 ft | 508 kts | 109° |
| 2026-04-25 21:44 | 51.87836 | -7.04820 | 37222 ft | 508 kts | 109° |
| 2026-04-25 21:45 | 51.84797 | -6.89329 | 37221 ft | 508 kts | 109° |
| 2026-04-25 21:45 | 51.82661 | -6.78522 | 37221 ft | 508 kts | 109° |
| 2026-04-25 21:46 | 51.80494 | -6.67612 | 37221 ft | 509 kts | 109° |
| 2026-04-25 21:46 | 51.78435 | -6.56646 | 37220 ft | 510 kts | 103° |
| 2026-04-25 21:47 | 51.77206 | -6.45334 | 37220 ft | 511 kts | 99° |
| 2026-04-25 21:47 | 51.76169 | -6.34041 | 37222 ft | 511 kts | 99° |
| 2026-04-25 21:48 | 51.75146 | -6.22679 | 37223 ft | 511 kts | 99° |
| 2026-04-25 21:48 | 51.74105 | -6.11383 | 37224 ft | 511 kts | 99° |
| 2026-04-25 21:49 | 51.73036 | -6.00042 | 37224 ft | 511 kts | 99° |
| 2026-04-25 21:49 | 51.71950 | -5.88691 | 37225 ft | 511 kts | 99° |
| 2026-04-25 21:50 | 51.70855 | -5.77357 | 37230 ft | 511 kts | 99° |
| 2026-04-25 21:50 | 51.69936 | -5.67938 | 37221 ft | 511 kts | 99° |
| 2026-04-25 21:51 | 51.68821 | -5.56603 | 37221 ft | 511 kts | 99° |
| 2026-04-25 21:51 | 51.67696 | -5.45279 | 37224 ft | 511 kts | 99° |
| 2026-04-25 21:52 | 51.66559 | -5.33957 | 37228 ft | 512 kts | 99° |
| 2026-04-25 21:52 | 51.65419 | -5.22712 | 37227 ft | 512 kts | 99° |
| 2026-04-25 21:53 | 51.64258 | -5.11382 | 37219 ft | 512 kts | 99° |
| 2026-04-25 21:53 | 51.63088 | -5.00068 | 37227 ft | 512 kts | 100° |
| 2026-04-25 21:54 | 51.61907 | -4.88760 | 37227 ft | 512 kts | 100° |
| 2026-04-25 21:54 | 51.60715 | -4.77460 | 37222 ft | 511 kts | 100° |
| 2026-04-25 21:55 | 51.59516 | -4.66208 | 37230 ft | 510 kts | 100° |
| 2026-04-25 21:55 | 51.58316 | -4.55042 | 37218 ft | 510 kts | 100° |
| 2026-04-25 21:56 | 51.57099 | -4.43821 | 37223 ft | 510 kts | 100° |
| 2026-04-25 21:56 | 51.55869 | -4.32597 | 37233 ft | 510 kts | 100° |
| 2026-04-25 21:57 | 51.54630 | -4.21386 | 37224 ft | 509 kts | 100° |
| 2026-04-25 21:57 | 51.53382 | -4.10192 | 37227 ft | 509 kts | 100° |
| 2026-04-25 21:58 | 51.52124 | -3.99017 | 37223 ft | 509 kts | 100° |
| 2026-04-25 21:58 | 51.50853 | -3.87823 | 37203 ft | 509 kts | 100° |
| 2026-04-25 21:59 | 51.49585 | -3.76721 | 37225 ft | 508 kts | 100° |
| 2026-04-25 21:59 | 51.48294 | -3.65564 | 37213 ft | 508 kts | 100° |
| 2026-04-25 22:00 | 51.47096 | -3.48686 | 37209 ft | 508 kts | 95° |
| 2026-04-25 22:00 | 51.46494 | -3.38316 | 37208 ft | 508 kts | 95° |
| 2026-04-25 22:01 | 51.45837 | -3.27026 | 37244 ft | 508 kts | 95° |
| 2026-04-25 22:01 | 51.45277 | -3.17664 | 37241 ft | 507 kts | 95° |
| 2026-04-25 22:02 | 51.44474 | -3.04577 | 37226 ft | 508 kts | 95° |
| 2026-04-25 22:02 | 51.43769 | -2.93315 | 37233 ft | 508 kts | 96° |
| 2026-04-25 22:03 | 51.43054 | -2.82057 | 37234 ft | 507 kts | 96° |
| 2026-04-25 22:03 | 51.42327 | -2.70786 | 37241 ft | 507 kts | 96° |
| 2026-04-25 22:04 | 51.41596 | -2.59604 | 37231 ft | 507 kts | 96° |
| 2026-04-25 22:04 | 51.40849 | -2.48359 | 37231 ft | 507 kts | 96° |
| 2026-04-25 22:05 | 51.40092 | -2.37125 | 37241 ft | 507 kts | 96° |
| 2026-04-25 22:05 | 51.39325 | -2.25907 | 37229 ft | 506 kts | 96° |
| 2026-04-25 22:06 | 51.38552 | -2.14768 | 37238 ft | 506 kts | 96° |
| 2026-04-25 22:06 | 51.37765 | -2.03576 | 37234 ft | 506 kts | 96° |
| 2026-04-25 22:07 | 51.37104 | -1.94271 | 37231 ft | 506 kts | 96° |
| 2026-04-25 22:07 | 51.36160 | -1.81199 | 37234 ft | 504 kts | 96° |
| 2026-04-25 22:08 | 51.35342 | -1.70054 | 37242 ft | 504 kts | 96° |
| 2026-04-25 22:08 | 51.34515 | -1.58933 | 37241 ft | 503 kts | 96° |
| 2026-04-25 22:09 | 51.33682 | -1.47794 | 37233 ft | 504 kts | 96° |
| 2026-04-25 22:09 | 51.32837 | -1.36745 | 37244 ft | 503 kts | 97° |
| 2026-04-25 22:10 | 51.31977 | -1.25633 | 37229 ft | 504 kts | 97° |
| 2026-04-25 22:10 | 51.31116 | -1.14517 | 37230 ft | 504 kts | 96° |
| 2026-04-25 22:11 | 51.30514 | -1.03362 | 37238 ft | 504 kts | 93° |
| 2026-04-25 22:11 | 51.30027 | -0.92188 | 37243 ft | 504 kts | 93° |
| 2026-04-25 22:12 | 51.29501 | -0.81023 | 37240 ft | 504 kts | 94° |
| 2026-04-25 22:12 | 51.29028 | -0.71731 | 37230 ft | 504 kts | 94° |
| 2026-04-25 22:13 | 51.28334 | -0.58675 | 37242 ft | 504 kts | 94° |
| 2026-04-25 22:13 | 51.27728 | -0.47508 | 37230 ft | 504 kts | 94° |
| 2026-04-25 22:14 | 51.27117 | -0.36408 | 37244 ft | 504 kts | 94° |
| 2026-04-25 22:14 | 51.26493 | -0.25242 | 37239 ft | 504 kts | 95° |
| 2026-04-25 22:15 | 51.25857 | -0.14080 | 37237 ft | 504 kts | 95° |
| 2026-04-25 22:16 | 51.24886 | 0.02654 | 37261 ft | 504 kts | 95° |
| 2026-04-25 22:16 | 51.24231 | 0.13768 | 37271 ft | 502 kts | 95° |
| 2026-04-25 22:17 | 51.23564 | 0.24792 | 37288 ft | 502 kts | 95° |
| 2026-04-25 22:17 | 51.22886 | 0.35883 | 37297 ft | 502 kts | 95° |
| 2026-04-25 22:18 | 51.22195 | 0.46962 | 37289 ft | 502 kts | 95° |
| 2026-04-25 22:18 | 51.21493 | 0.58044 | 37302 ft | 502 kts | 95° |
| 2026-04-25 22:19 | 51.20786 | 0.69107 | 37293 ft | 501 kts | 95° |
| 2026-04-25 22:19 | 51.20063 | 0.80175 | 37271 ft | 501 kts | 95° |
| 2026-04-25 22:20 | 51.19329 | 0.91245 | 37273 ft | 501 kts | 96° |
| 2026-04-25 22:20 | 51.18588 | 1.02290 | 37261 ft | 501 kts | 96° |
| 2026-04-25 22:21 | 51.17836 | 1.13338 | 37261 ft | 500 kts | 96° |
| 2026-04-25 22:21 | 51.17076 | 1.24368 | 37266 ft | 500 kts | 96° |
| 2026-04-25 22:22 | 51.16310 | 1.35320 | 37262 ft | 500 kts | 96° |
| 2026-04-25 22:22 | 51.15666 | 1.46361 | 37262 ft | 500 kts | 94° |
| 2026-04-25 22:23 | 51.15183 | 1.57412 | 37260 ft | 499 kts | 93° |
| 2026-04-25 22:23 | 51.14685 | 1.68445 | 37259 ft | 499 kts | 94° |
| 2026-04-25 22:24 | 51.14145 | 1.79476 | 37257 ft | 499 kts | 94° |
| 2026-04-25 22:24 | 51.13584 | 1.90442 | 37249 ft | 499 kts | 94° |
| 2026-04-25 22:25 | 51.13008 | 2.01465 | 37242 ft | 498 kts | 94° |
| 2026-04-25 22:25 | 51.12426 | 2.12464 | 37243 ft | 498 kts | 94° |
| 2026-04-25 22:26 | 51.11830 | 2.23442 | 37244 ft | 498 kts | 94° |
| 2026-04-25 22:26 | 51.11225 | 2.34422 | 37246 ft | 498 kts | 94° |
| 2026-04-25 22:27 | 51.10609 | 2.45416 | 37246 ft | 498 kts | 94° |
| 2026-04-25 22:27 | 51.09989 | 2.56321 | 37246 ft | 498 kts | 94° |
| 2026-04-25 22:28 | 51.09058 | 2.67226 | 37243 ft | 498 kts | 102° |
| 2026-04-25 22:28 | 51.07415 | 2.77957 | 37240 ft | 499 kts | 104° |
| 2026-04-25 22:29 | 51.05638 | 2.88616 | 37261 ft | 498 kts | 104° |
| 2026-04-25 22:29 | 51.03843 | 2.99228 | 37257 ft | 498 kts | 104° |
| 2026-04-25 22:30 | 51.01147 | 3.15200 | 37251 ft | 498 kts | 104° |
| 2026-04-25 22:30 | 50.99650 | 3.24042 | 37249 ft | 499 kts | 104° |
| 2026-04-25 22:31 | 50.97544 | 3.36414 | 37246 ft | 498 kts | 105° |
| 2026-04-25 22:31 | 50.95724 | 3.47029 | 37246 ft | 498 kts | 105° |
| 2026-04-25 22:32 | 50.93891 | 3.57657 | 37246 ft | 498 kts | 105° |
| 2026-04-25 22:32 | 50.92051 | 3.68254 | 37249 ft | 498 kts | 105° |
| 2026-04-25 22:33 | 50.90215 | 3.78773 | 37248 ft | 498 kts | 105° |
| 2026-04-25 22:33 | 50.88359 | 3.89338 | 37247 ft | 498 kts | 105° |
| 2026-04-25 22:34 | 50.86494 | 3.99893 | 37245 ft | 497 kts | 105° |
| 2026-04-25 22:34 | 50.84933 | 4.08681 | 37243 ft | 497 kts | 105° |
| 2026-04-25 22:35 | 50.83047 | 4.19242 | 37241 ft | 497 kts | 105° |
| 2026-04-25 22:35 | 50.81154 | 4.29784 | 37240 ft | 497 kts | 105° |
| 2026-04-25 22:36 | 50.79267 | 4.40227 | 37229 ft | 497 kts | 106° |
| 2026-04-25 22:36 | 50.77350 | 4.50778 | 37238 ft | 499 kts | 106° |
| 2026-04-25 22:37 | 50.75420 | 4.61335 | 37240 ft | 500 kts | 106° |
| 2026-04-25 22:37 | 50.73482 | 4.71874 | 37232 ft | 499 kts | 106° |
| 2026-04-25 22:38 | 50.71544 | 4.82359 | 37236 ft | 496 kts | 106° |
| 2026-04-25 22:38 | 50.69614 | 4.92737 | 37231 ft | 495 kts | 106° |
| 2026-04-25 22:39 | 50.67666 | 5.03159 | 37234 ft | 495 kts | 106° |
| 2026-04-25 22:39 | 50.65708 | 5.13573 | 37231 ft | 495 kts | 106° |
| 2026-04-25 22:40 | 50.63735 | 5.24008 | 37236 ft | 496 kts | 107° |
| 2026-04-25 22:40 | 50.61756 | 5.34419 | 37219 ft | 496 kts | 107° |
| 2026-04-25 22:41 | 50.59766 | 5.44826 | 37210 ft | 496 kts | 107° |
| 2026-04-25 22:41 | 50.57780 | 5.55159 | 37211 ft | 496 kts | 107° |
| 2026-04-25 22:42 | 50.55767 | 5.65574 | 37213 ft | 497 kts | 107° |
| 2026-04-25 22:42 | 50.53746 | 5.75975 | 37211 ft | 497 kts | 107° |
| 2026-04-25 22:43 | 50.51713 | 5.86381 | 37207 ft | 497 kts | 107° |
| 2026-04-25 22:43 | 50.49685 | 5.96704 | 37206 ft | 497 kts | 107° |
| 2026-04-25 22:44 | 50.47633 | 6.07093 | 37205 ft | 499 kts | 107° |
| 2026-04-25 22:44 | 50.45563 | 6.17517 | 37206 ft | 500 kts | 107° |
| 2026-04-25 22:45 | 50.43644 | 6.27131 | 37204 ft | 501 kts | 107° |
| 2026-04-25 22:45 | 50.41655 | 6.37590 | 37203 ft | 500 kts | 103° |
| 2026-04-25 22:46 | 50.40099 | 6.48236 | 37197 ft | 500 kts | 102° |
| 2026-04-25 22:46 | 50.38632 | 6.58849 | 37195 ft | 501 kts | 102° |
| 2026-04-25 22:47 | 50.37157 | 6.69537 | 37193 ft | 502 kts | 102° |
| 2026-04-25 22:47 | 50.35662 | 6.80244 | 37191 ft | 502 kts | 102° |
| 2026-04-25 22:48 | 50.34165 | 6.90838 | 37188 ft | 502 kts | 102° |
| 2026-04-25 22:48 | 50.32641 | 7.01521 | 37186 ft | 503 kts | 102° |
| 2026-04-25 22:49 | 50.31109 | 7.12207 | 37183 ft | 503 kts | 102° |
| 2026-04-25 22:49 | 50.29565 | 7.22900 | 37183 ft | 503 kts | 102° |
| 2026-04-25 22:50 | 50.28024 | 7.33499 | 37183 ft | 503 kts | 102° |
| 2026-04-25 22:50 | 50.26460 | 7.44170 | 37184 ft | 503 kts | 102° |
| 2026-04-25 22:51 | 50.24889 | 7.54824 | 37184 ft | 503 kts | 102° |
| 2026-04-25 22:51 | 50.23307 | 7.65496 | 37181 ft | 503 kts | 102° |
| 2026-04-25 22:52 | 50.21730 | 7.76077 | 37181 ft | 503 kts | 102° |
| 2026-04-25 22:52 | 50.20392 | 7.84998 | 37183 ft | 503 kts | 102° |
| 2026-04-25 22:53 | 50.18525 | 7.97366 | 37180 ft | 503 kts | 102° |
| 2026-04-25 22:53 | 50.16908 | 8.08002 | 37177 ft | 503 kts | 102° |
| 2026-04-25 22:54 | 50.15281 | 8.18632 | 37176 ft | 503 kts | 102° |
| 2026-04-25 22:54 | 50.13646 | 8.29241 | 37180 ft | 504 kts | 102° |
| 2026-04-25 22:55 | 50.11996 | 8.39877 | 37174 ft | 505 kts | 102° |
| 2026-04-25 22:55 | 50.10344 | 8.50456 | 37183 ft | 508 kts | 102° |
| 2026-04-25 22:56 | 50.08646 | 8.61275 | 37181 ft | 519 kts | 102° |
| 2026-04-25 22:56 | 50.06919 | 8.72193 | 37183 ft | 518 kts | 102° |
| 2026-04-25 22:57 | 50.04707 | 8.82876 | 37180 ft | 520 kts | 112° |
| 2026-04-25 22:57 | 50.01702 | 8.93044 | 37171 ft | 520 kts | 115° |
| 2026-04-25 22:58 | 49.98523 | 9.03160 | 37165 ft | 520 kts | 115° |
| 2026-04-25 22:58 | 49.95322 | 9.13266 | 37166 ft | 520 kts | 115° |
| 2026-04-25 22:59 | 49.92130 | 9.23375 | 37160 ft | 521 kts | 115° |
| 2026-04-25 22:59 | 49.88932 | 9.33502 | 37155 ft | 522 kts | 115° |
| 2026-04-25 23:00 | 49.85753 | 9.43541 | 37156 ft | 522 kts | 115° |
| 2026-04-25 23:00 | 49.82217 | 9.53351 | 37155 ft | 523 kts | 126° |
| 2026-04-25 23:01 | 49.77315 | 9.61684 | 37153 ft | 523 kts | 136° |
| 2026-04-25 23:01 | 49.72027 | 9.69396 | 37149 ft | 522 kts | 137° |
| 2026-04-25 23:02 | 49.66715 | 9.76948 | 37145 ft | 522 kts | 137° |
| 2026-04-25 23:02 | 49.61378 | 9.84569 | 37149 ft | 522 kts | 137° |
| 2026-04-25 23:03 | 49.56059 | 9.92195 | 37161 ft | 522 kts | 137° |
| 2026-04-25 23:03 | 49.50723 | 9.99839 | 37155 ft | 524 kts | 137° |
| 2026-04-25 23:04 | 49.46278 | 10.06189 | 37155 ft | 525 kts | 137° |
| 2026-04-25 23:04 | 49.40014 | 10.15108 | 37155 ft | 525 kts | 137° |
| 2026-04-25 23:05 | 49.34741 | 10.22743 | 37157 ft | 525 kts | 133° |
| 2026-04-25 23:05 | 49.30558 | 10.31846 | 37159 ft | 523 kts | 116° |
| 2026-04-25 23:06 | 49.27480 | 10.41946 | 37133 ft | 522 kts | 111° |
| 2026-04-25 23:06 | 49.24665 | 10.52221 | 37148 ft | 522 kts | 111° |
| 2026-04-25 23:07 | 49.21844 | 10.62463 | 37184 ft | 522 kts | 111° |
| 2026-04-25 23:07 | 49.18989 | 10.72595 | 37184 ft | 522 kts | 111° |
| 2026-04-25 23:08 | 49.16079 | 10.82788 | 37181 ft | 523 kts | 112° |
| 2026-04-25 23:08 | 49.13159 | 10.92962 | 37168 ft | 523 kts | 112° |
| 2026-04-25 23:09 | 49.10225 | 11.03143 | 37160 ft | 523 kts | 112° |
| 2026-04-25 23:09 | 49.07286 | 11.13307 | 37157 ft | 523 kts | 112° |
| 2026-04-25 23:10 | 49.04354 | 11.23405 | 37147 ft | 524 kts | 112° |
| 2026-04-25 23:10 | 49.01397 | 11.33547 | 37134 ft | 524 kts | 112° |
| 2026-04-25 23:11 | 48.98423 | 11.43702 | 37136 ft | 524 kts | 112° |
| 2026-04-25 23:11 | 48.95445 | 11.53827 | 37129 ft | 524 kts | 112° |
| 2026-04-25 23:12 | 48.92478 | 11.63880 | 37128 ft | 523 kts | 112° |
| 2026-04-25 23:12 | 48.89489 | 11.73960 | 37128 ft | 523 kts | 112° |
| 2026-04-25 23:13 | 48.86492 | 11.84029 | 37124 ft | 523 kts | 112° |
| 2026-04-25 23:13 | 48.83487 | 11.94080 | 37125 ft | 523 kts | 112° |
| 2026-04-25 23:14 | 48.80465 | 12.04147 | 37123 ft | 524 kts | 112° |
| 2026-04-25 23:14 | 48.77431 | 12.14215 | 37117 ft | 524 kts | 112° |
| 2026-04-25 23:15 | 48.74391 | 12.24259 | 37122 ft | 524 kts | 113° |
| 2026-04-25 23:15 | 48.72869 | 12.29275 | 36942 ft | 523 kts | 113° |
| 2026-04-25 23:15 | 48.71345 | 12.34285 | 36684 ft | 524 kts | 113° |
| 2026-04-25 23:16 | 48.69834 | 12.39241 | 36425 ft | 525 kts | 113° |
| 2026-04-25 23:16 | 48.68301 | 12.44261 | 36166 ft | 525 kts | 113° |
| 2026-04-25 23:16 | 48.66767 | 12.49274 | 35914 ft | 525 kts | 113° |
| 2026-04-25 23:16 | 48.65227 | 12.54296 | 35661 ft | 526 kts | 113° |
| 2026-04-25 23:17 | 48.63686 | 12.59312 | 35416 ft | 526 kts | 113° |
| 2026-04-25 23:17 | 48.62142 | 12.64327 | 35157 ft | 527 kts | 113° |
| 2026-04-25 23:17 | 48.60594 | 12.69346 | 34905 ft | 527 kts | 113° |
| 2026-04-25 23:17 | 48.59045 | 12.74357 | 34660 ft | 527 kts | 113° |
| 2026-04-25 23:18 | 48.57491 | 12.79374 | 34419 ft | 527 kts | 113° |
| 2026-04-25 23:18 | 48.55968 | 12.84416 | 34284 ft | 527 kts | 110° |
| 2026-04-25 23:18 | 48.54142 | 12.94999 | 34154 ft | 513 kts | 93° |
| 2026-04-25 23:19 | 48.53970 | 13.00345 | 33703 ft | 507 kts | 87° |
| 2026-04-25 23:19 | 48.53964 | 13.05667 | 33198 ft | 506 kts | 86° |
| 2026-04-25 23:19 | 48.53983 | 13.10916 | 32725 ft | 507 kts | 86° |
| 2026-04-25 23:19 | 48.53998 | 13.16245 | 32270 ft | 509 kts | 86° |
| 2026-04-25 23:20 | 48.54008 | 13.21591 | 31808 ft | 510 kts | 86° |
| 2026-04-25 23:20 | 48.54013 | 13.26963 | 31358 ft | 511 kts | 86° |
| 2026-04-25 23:20 | 48.54014 | 13.32324 | 30910 ft | 512 kts | 86° |
| 2026-04-25 23:20 | 48.54013 | 13.37711 | 30477 ft | 513 kts | 87° |
| 2026-04-25 23:21 | 48.54008 | 13.43097 | 30013 ft | 514 kts | 87° |
| 2026-04-25 23:21 | 48.54003 | 13.46659 | 29673 ft | 512 kts | 87° |
| 2026-04-25 23:21 | 48.53993 | 13.52028 | 29167 ft | 509 kts | 87° |
| 2026-04-25 23:21 | 48.53980 | 13.57363 | 28682 ft | 506 kts | 87° |
| 2026-04-25 23:22 | 48.53966 | 13.62657 | 28202 ft | 502 kts | 87° |
| 2026-04-25 23:22 | 48.53948 | 13.67913 | 27719 ft | 498 kts | 87° |
| 2026-04-25 23:22 | 48.53929 | 13.73124 | 27238 ft | 495 kts | 87° |
| 2026-04-25 23:23 | 48.53885 | 13.83442 | 26330 ft | 488 kts | 87° |
| 2026-04-25 23:23 | 48.53860 | 13.88545 | 25882 ft | 485 kts | 87° |
| 2026-04-25 23:23 | 48.53832 | 13.93623 | 25440 ft | 481 kts | 87° |
| 2026-04-25 23:23 | 48.53804 | 13.98587 | 25027 ft | 479 kts | 87° |
| 2026-04-25 23:24 | 48.53772 | 14.03600 | 24597 ft | 476 kts | 87° |
| 2026-04-25 23:24 | 48.53739 | 14.08588 | 24178 ft | 474 kts | 87° |
| 2026-04-25 23:24 | 48.53704 | 14.13549 | 23760 ft | 471 kts | 87° |
| 2026-04-25 23:24 | 48.53666 | 14.18485 | 23284 ft | 468 kts | 87° |
| 2026-04-25 23:25 | 48.53627 | 14.23380 | 22795 ft | 465 kts | 87° |
| 2026-04-25 23:25 | 48.53586 | 14.28257 | 22311 ft | 462 kts | 87° |
| 2026-04-25 23:25 | 48.53544 | 14.33095 | 21838 ft | 459 kts | 87° |
| 2026-04-25 23:25 | 48.53500 | 14.37911 | 21371 ft | 459 kts | 87° |
| 2026-04-25 23:26 | 48.53454 | 14.42738 | 20923 ft | 459 kts | 88° |
| 2026-04-25 23:26 | 48.53406 | 14.47552 | 20464 ft | 458 kts | 88° |
| 2026-04-25 23:26 | 48.53355 | 14.52348 | 20021 ft | 457 kts | 88° |
| 2026-04-25 23:26 | 48.53303 | 14.57073 | 19586 ft | 454 kts | 88° |
| 2026-04-25 23:27 | 48.53249 | 14.61836 | 19155 ft | 452 kts | 88° |
| 2026-04-25 23:27 | 48.53193 | 14.66566 | 18735 ft | 449 kts | 88° |
| 2026-04-25 23:27 | 48.53136 | 14.71263 | 18299 ft | 447 kts | 88° |
| 2026-04-25 23:27 | 48.53077 | 14.75926 | 17819 ft | 440 kts | 88° |
| 2026-04-25 23:28 | 48.53017 | 14.80487 | 17345 ft | 430 kts | 88° |
| 2026-04-25 23:28 | 48.52956 | 14.84927 | 17099 ft | 416 kts | 88° |
| 2026-04-25 23:28 | 48.52896 | 14.89187 | 17052 ft | 396 kts | 88° |
| 2026-04-25 23:28 | 48.52836 | 14.93255 | 17051 ft | 377 kts | 88° |
| 2026-04-25 23:29 | 48.52777 | 14.97112 | 17052 ft | 360 kts | 88° |
| 2026-04-25 23:29 | 48.52723 | 15.00760 | 17052 ft | 347 kts | 87° |
| 2026-04-25 23:29 | 48.52671 | 15.04389 | 17036 ft | 346 kts | 87° |
| 2026-04-25 23:29 | 48.52619 | 15.08014 | 17037 ft | 346 kts | 87° |
| 2026-04-25 23:30 | 48.52565 | 15.11643 | 17035 ft | 346 kts | 87° |
| 2026-04-25 23:30 | 48.52508 | 15.15272 | 17039 ft | 346 kts | 87° |
| 2026-04-25 23:30 | 48.52449 | 15.18912 | 17041 ft | 347 kts | 87° |
| 2026-04-25 23:30 | 48.52390 | 15.22560 | 17031 ft | 348 kts | 87° |
| 2026-04-25 23:31 | 48.52328 | 15.26207 | 17030 ft | 348 kts | 88° |
| 2026-04-25 23:31 | 48.52265 | 15.29866 | 17032 ft | 347 kts | 88° |
| 2026-04-25 23:31 | 48.52202 | 15.33504 | 17029 ft | 347 kts | 88° |
| 2026-04-25 23:31 | 48.52137 | 15.37147 | 16990 ft | 347 kts | 88° |
| 2026-04-25 23:32 | 48.52071 | 15.40789 | 16849 ft | 347 kts | 88° |
| 2026-04-25 23:32 | 48.52004 | 15.44374 | 16710 ft | 347 kts | 88° |
| 2026-04-25 23:32 | 48.51715 | 15.48082 | 16665 ft | 371 kts | 98° |
| 2026-04-25 23:32 | 48.51115 | 15.52030 | 16596 ft | 401 kts | 102° |
| 2026-04-25 23:33 | 48.50326 | 15.56227 | 16510 ft | 428 kts | 105° |
| 2026-04-25 23:33 | 48.49408 | 15.60591 | 16358 ft | 441 kts | 107° |
| 2026-04-25 23:33 | 48.48436 | 15.64986 | 15893 ft | 441 kts | 107° |
| 2026-04-25 23:33 | 48.47453 | 15.69362 | 15316 ft | 438 kts | 107° |
| 2026-04-25 23:34 | 48.46495 | 15.73649 | 14777 ft | 435 kts | 107° |
| 2026-04-25 23:34 | 48.45540 | 15.77968 | 14227 ft | 434 kts | 107° |
| 2026-04-25 23:34 | 48.44595 | 15.82284 | 13670 ft | 431 kts | 107° |
| 2026-04-25 23:34 | 48.43664 | 15.86559 | 13166 ft | 428 kts | 107° |
| 2026-04-25 23:35 | 48.42740 | 15.90816 | 13016 ft | 427 kts | 107° |
| 2026-04-25 23:35 | 48.41819 | 15.95055 | 13008 ft | 426 kts | 107° |
| 2026-04-25 23:35 | 48.40897 | 15.99293 | 13009 ft | 425 kts | 107° |
| 2026-04-25 23:35 | 48.39976 | 16.03519 | 13007 ft | 425 kts | 107° |
| 2026-04-25 23:36 | 48.39052 | 16.07742 | 12748 ft | 424 kts | 107° |
| 2026-04-25 23:36 | 48.38140 | 16.11899 | 12287 ft | 421 kts | 107° |
| 2026-04-25 23:36 | 48.37224 | 16.16072 | 11846 ft | 418 kts | 107° |
| 2026-04-25 23:36 | 48.36312 | 16.20214 | 11382 ft | 413 kts | 107° |
| 2026-04-25 23:37 | 48.35436 | 16.24182 | 10957 ft | 386 kts | 107° |
| 2026-04-25 23:37 | 48.34615 | 16.27891 | 10552 ft | 364 kts | 108° |
| 2026-04-25 23:37 | 48.33822 | 16.31468 | 10148 ft | 357 kts | 108° |
| 2026-04-25 23:37 | 48.33041 | 16.34994 | 9676 ft | 352 kts | 108° |
| 2026-04-25 23:38 | 48.32273 | 16.38457 | 9216 ft | 348 kts | 108° |
| 2026-04-25 23:38 | 48.31511 | 16.41878 | 8747 ft | 343 kts | 108° |
| 2026-04-25 23:38 | 48.30758 | 16.45256 | 8295 ft | 338 kts | 108° |
| 2026-04-25 23:38 | 48.30024 | 16.48548 | 7834 ft | 334 kts | 108° |
| 2026-04-25 23:39 | 48.29290 | 16.51833 | 7407 ft | 330 kts | 108° |
| 2026-04-25 23:39 | 48.28560 | 16.55079 | 6988 ft | 325 kts | 108° |
| 2026-04-25 23:39 | 48.27594 | 16.58122 | 6574 ft | 321 kts | 123° |
| 2026-04-25 23:39 | 48.26094 | 16.60545 | 6173 ft | 314 kts | 145° |
| 2026-04-25 23:40 | 48.24214 | 16.61985 | 6014 ft | 294 kts | 166° |
| 2026-04-25 23:40 | 48.22290 | 16.62669 | 6003 ft | 275 kts | 174° |
| 2026-04-25 23:40 | 48.20433 | 16.63223 | 6000 ft | 273 kts | 169° |
| 2026-04-25 23:40 | 48.18693 | 16.64407 | 5995 ft | 278 kts | 148° |
| 2026-04-25 23:41 | 48.17323 | 16.66466 | 5996 ft | 280 kts | 127° |
| 2026-04-25 23:41 | 48.16287 | 16.68942 | 5996 ft | 281 kts | 119° |
| 2026-04-25 23:41 | 48.15391 | 16.71501 | 5995 ft | 279 kts | 116° |
| 2026-04-25 23:41 | 48.14566 | 16.74081 | 5998 ft | 272 kts | 114° |
| 2026-04-25 23:42 | 48.13773 | 16.76644 | 5997 ft | 270 kts | 114° |
| 2026-04-25 23:42 | 48.12981 | 16.79199 | 5995 ft | 270 kts | 114° |
| 2026-04-25 23:42 | 48.12176 | 16.81744 | 5965 ft | 270 kts | 115° |
| 2026-04-25 23:42 | 48.11357 | 16.84279 | 5731 ft | 270 kts | 115° |
| 2026-04-25 23:43 | 48.10528 | 16.86812 | 5360 ft | 271 kts | 115° |
| 2026-04-25 23:43 | 48.09699 | 16.89311 | 4972 ft | 272 kts | 115° |
| 2026-04-25 23:43 | 48.08851 | 16.91848 | 4593 ft | 272 kts | 115° |
| 2026-04-25 23:43 | 48.07972 | 16.94359 | 4204 ft | 273 kts | 121° |
| 2026-04-25 23:44 | 48.06692 | 16.96395 | 3988 ft | 264 kts | 141° |
| 2026-04-25 23:44 | 48.05271 | 16.98001 | 3973 ft | 248 kts | 145° |
| 2026-04-25 23:44 | 48.03884 | 16.99477 | 3976 ft | 243 kts | 149° |
| 2026-04-25 23:44 | 48.02321 | 17.00306 | 3976 ft | 236 kts | 178° |
| 2026-04-25 23:45 | 48.00757 | 16.99981 | 3953 ft | 222 kts | 211° |
| 2026-04-25 23:45 | 47.99617 | 16.98607 | 3696 ft | 204 kts | 245° |
| 2026-04-25 23:45 | 47.99102 | 16.96738 | 3386 ft | 195 kts | 262° |
| 2026-04-25 23:45 | 47.98901 | 16.94771 | 3074 ft | 184 kts | 284° |
| 2026-04-25 23:46 | 47.99334 | 16.93029 | 3012 ft | 179 kts | 298° |
| 2026-04-25 23:46 | 47.99888 | 16.91354 | 2980 ft | 181 kts | 298° |
| 2026-04-25 23:46 | 48.00445 | 16.89662 | 2977 ft | 182 kts | 298° |
| 2026-04-25 23:46 | 48.01004 | 16.87965 | 2979 ft | 181 kts | 298° |
| 2026-04-25 23:47 | 48.01554 | 16.86291 | 2995 ft | 181 kts | 299° |
| 2026-04-25 23:47 | 48.02108 | 16.84606 | 2995 ft | 180 kts | 299° |
| 2026-04-25 23:47 | 48.02662 | 16.82916 | 2992 ft | 181 kts | 299° |
| 2026-04-25 23:47 | 48.03215 | 16.81223 | 2993 ft | 181 kts | 298° |
| 2026-04-25 23:48 | 48.03766 | 16.79531 | 2992 ft | 180 kts | 298° |
| 2026-04-25 23:48 | 48.04287 | 16.77925 | 2994 ft | 164 kts | 298° |
| 2026-04-25 23:48 | 48.04767 | 16.76443 | 2998 ft | 159 kts | 298° |
| 2026-04-25 23:48 | 48.05247 | 16.74964 | 3008 ft | 157 kts | 298° |
| 2026-04-25 23:49 | 48.05722 | 16.73507 | 2923 ft | 153 kts | 298° |
| 2026-04-25 23:49 | 48.06177 | 16.72112 | 2743 ft | 145 kts | 298° |
| 2026-04-25 23:49 | 48.06606 | 16.70794 | 2539 ft | 138 kts | 298° |
| 2026-04-25 23:49 | 48.07023 | 16.69514 | 2355 ft | 136 kts | 298° |
| 2026-04-25 23:50 | 48.07438 | 16.68242 | 2163 ft | 137 kts | 298° |
| 2026-04-25 23:50 | 48.07846 | 16.66987 | 1993 ft | 128 kts | 297° |
| 2026-04-25 23:50 | 48.08209 | 16.65862 | 1831 ft | 113 kts | 296° |
| 2026-04-25 23:50 | 48.08550 | 16.64816 | 1691 ft | 112 kts | 297° |
| 2026-04-25 23:51 | 48.08889 | 16.63777 | 1527 ft | 113 kts | 297° |
| 2026-04-25 23:51 | 48.09234 | 16.62715 | 1382 ft | 114 kts | 299° |
| 2026-04-25 23:51 | 48.09587 | 16.61634 | 1232 ft | 118 kts | 297° |
| 2026-04-25 23:51 | 48.09949 | 16.60520 | 1069 ft | 120 kts | 297° |
| 2026-04-25 23:52 | 48.10317 | 16.59383 | 904 ft | 122 kts | 297° |
| 2026-04-25 23:52 | 48.10692 | 16.58240 | 729 ft | 123 kts | 295° |
| 2026-04-25 23:52 | 48.11060 | 16.57092 | 621 ft | 119 kts | 295° |
| 2026-04-25 23:52 | 48.11375 | 16.56125 | 630 ft | 87 kts | 296° |
| 2026-04-25 23:53 | 48.11580 | 16.55499 | 625 ft | 44 kts | 299° |
| 2026-04-25 23:53 | 48.11750 | 16.55212 | 629 ft | 25 kts | 315° |
| 2026-04-25 23:53 | 48.11842 | 16.55145 | 629 ft | 10 kts | 5° |
| 2026-04-25 23:53 | 48.11875 | 16.55228 | 625 ft | 11 kts | 101° |
| 2026-04-25 23:54 | 48.11844 | 16.55323 | 629 ft | 6 kts | 116° |
| 2026-04-25 23:54 | 48.11815 | 16.55412 | 624 ft | 13 kts | 116° |
| 2026-04-25 23:54 | 48.11765 | 16.55563 | 629 ft | 17 kts | 116° |
| 2026-04-25 23:54 | 48.11711 | 16.55729 | 627 ft | 19 kts | 116° |
| 2026-04-25 23:55 | 48.11649 | 16.55920 | 626 ft | 22 kts | 116° |
| 2026-04-25 23:55 | 48.11577 | 16.56140 | 623 ft | 25 kts | 116° |
| 2026-04-25 23:55 | 48.11523 | 16.56307 | 629 ft | 18 kts | 116° |
| 2026-04-25 23:55 | 48.11465 | 16.56485 | 625 ft | 20 kts | 116° |
| 2026-04-25 23:56 | 48.11399 | 16.56684 | 628 ft | 23 kts | 116° |
| 2026-04-25 23:56 | 48.11328 | 16.56904 | 626 ft | 24 kts | 115° |
| 2026-04-25 23:56 | 48.11258 | 16.57135 | 625 ft | 25 kts | 115° |
| 2026-04-25 23:56 | 48.11239 | 16.57246 | 620 ft | 6 kts | 72° |
| 2026-04-25 23:57 | 48.11271 | 16.57298 | 628 ft | 9 kts | 37° |
| 2026-04-25 23:57 | 48.11347 | 16.57361 | 626 ft | 16 kts | 26° |
| 2026-04-25 23:57 | 48.11460 | 16.57437 | 629 ft | 16 kts | 26° |
| 2026-04-25 23:57 | 48.11572 | 16.57526 | 625 ft | 19 kts | 30° |
| 2026-04-25 23:58 | 48.11677 | 16.57528 | 629 ft | 17 kts | 343° |
| 2026-04-25 23:58 | 48.11807 | 16.57472 | 627 ft | 21 kts | 343° |
| 2026-04-25 23:58 | 48.11956 | 16.57409 | 625 ft | 23 kts | 344° |
| 2026-04-25 23:58 | 48.12117 | 16.57340 | 626 ft | 25 kts | 344° |
| 2026-04-25 23:59 | 48.12195 | 16.57264 | 628 ft | 3 kts | 284° |
| 2026-04-25 23:59 | 48.12205 | 16.57218 | 622 ft | 7 kts | 291° |
| 2026-04-25 23:59 | 48.12234 | 16.57161 | 628 ft | 4 kts | 342° |
| 2026-04-25 23:59 | 48.12272 | 16.57176 | 623 ft | 8 kts | 26° |
| 2026-04-26 00:00 | 48.12316 | 16.57207 | 626 ft | 0 kts | 25° |